sensor_id;sensor_type;location;lat;lon;timestamp;pressure;altitude;pressure_sealevel;temperature;humidity
71642;BME280;60657;50.122;14.468;2022-09-03T00:00:57;98364.09471859918;;;15.215915159838254;60.395819028000304
71642;BME280;60657;50.122;14.468;2022-09-03T00:04:16;98361.55858138994;;;15.213244831006335;60.49309529259175
71642;BME280;60657;50.122;14.468;2022-09-03T00:07:39;98349.09769193118;;;15.146486610208285;60.49309529259175
71642;BME280;60657;50.122;14.468;2022-09-03T00:11:02;98360.01351470847;;;15.138475623712523;60.66666666666667
71642;BME280;60657;50.122;14.468;2022-09-03T00:14:24;98358.41326540371;;;15.045014114595254;61.09582665751125
71642;BME280;60657;50.122;14.468;2022-09-03T00:17:46;98357.92850788507;;;14.879453727016099;61.704280155642024
71642;BME280;60657;50.122;14.468;2022-09-03T00:21:06;98364.07260310337;;;14.761959258411537;62.253604943923094
71642;BME280;60657;50.122;14.468;2022-09-03T00:24:24;98371.54416104645;;;14.75127794308385;62.127718013275356
71642;BME280;60657;50.122;14.468;2022-09-03T00:27:42;98371.73831366646;;;14.61509117265583;62.48439765011062
71642;BME280;60657;50.122;14.468;2022-09-03T00:31:04;98364.19461100949;;;14.655146105134662;62.341344319829105
71642;BME280;60657;50.122;14.468;2022-09-03T00:34:25;98374.36306510097;;;14.569695582513162;62.74189364461738
71642;BME280;60657;50.122;14.468;2022-09-03T00:37:43;98371.8333033193;;;14.553673609521631;62.86968795300221
71642;BME280;60657;50.122;14.468;2022-09-03T00:41:00;98379.49100214527;;;14.484245059891663;63.07377737087053
71642;BME280;60657;50.122;14.468;2022-09-03T00:44:24;98376.15739236363;;;14.478904402227819;62.96887159533074
71642;BME280;60657;50.122;14.468;2022-09-03T00:47:54;98375.97120800856;;;14.593728542000456;62.86015106431678
71642;BME280;60657;50.122;14.468;2022-09-03T00:51:21;98371.71434892862;;;14.609750514991987;62.51682307164111
71642;BME280;60657;50.122;14.468;2022-09-03T00:54:48;98364.33815144192;;;14.559014267185475;62.70374608987564
71642;BME280;60657;50.122;14.468;2022-09-03T00:58:15;98370.29485426864;;;14.465552758068206;62.94026092927443
71642;BME280;60657;50.122;14.468;2022-09-03T01:01:49;98369.39752079049;;;14.540321965362018;62.93835355153735
71642;BME280;60657;50.122;14.468;2022-09-03T01:05:19;98363.486936086;;;14.524299992370487;62.5778591592279
71642;BME280;60657;50.122;14.468;2022-09-03T01:08:53;98353.62759803474;;;14.446860456244757;62.917372396429386
71642;BME280;60657;50.122;14.468;2022-09-03T01:12:20;98358.59261653283;;;14.5136186770428;62.83916990920882
71642;BME280;60657;50.122;14.468;2022-09-03T01:15:48;98362.73023156833;;;14.489585717555507;62.93644617380026
71642;BME280;60657;50.122;14.468;2022-09-03T01:19:20;98361.32788266966;;;14.353398947127488;63.12336919203479
71642;BME280;60657;50.122;14.468;2022-09-03T01:23:36;98369.14800616133;;;14.174486915388727;63.60212100404364
71642;BME280;60657;50.122;14.468;2022-09-03T01:27:11;98355.84009157571;;;14.09437705043107;63.970244907301435
71642;BME280;60657;50.122;14.468;2022-09-03T01:30:41;98363.39525896781;;;14.056992446784164;64.16479743648432
71642;BME280;60657;50.122;14.468;2022-09-03T01:34:00;98351.06067575196;;;13.934157320515752;64.60730907148852
71642;BME280;60657;50.122;14.468;2022-09-03T01:37:30;98366.31741225359;;;13.819333180743115;65.1699855039292
71642;BME280;60657;50.122;14.468;2022-09-03T01:41:00;98362.13925328682;;;13.811322194247346;65.32829785610743
71642;BME280;60657;50.122;14.468;2022-09-03T01:44:29;98357.15225983033;;;13.741893644617377;65.41222247653926
71642;BME280;60657;50.122;14.468;2022-09-03T01:47:56;98363.75680697705;;;13.83268482490272;65.318760967422
71642;BME280;60657;50.122;14.468;2022-09-03T01:51:23;98352.04880920319;;;13.843366140230408;64.98496986343176
71642;BME280;60657;50.122;14.468;2022-09-03T01:54:43;98362.17730906954;;;13.73121232928969;65.34737163347829
71642;BME280;60657;50.122;14.468;2022-09-03T01:58:10;98360.52129336125;;;13.776607919432365;65.36453803311208
71642;BME280;60657;50.122;14.468;2022-09-03T02:01:31;98362.21501856987;;;13.707179369802397;65.5667200732433
71642;BME280;60657;50.122;14.468;2022-09-03T02:04:57;98367.18326506206;;;13.720531013962002;65.53047989623865
71642;BME280;60657;50.122;14.468;2022-09-03T02:08:12;98364.6991253774;;;13.728542000457772;65.72693980315861
71642;BME280;60657;50.122;14.468;2022-09-03T02:11:24;98368.12276092064;;;13.691157396810866;65.67544060425726
71642;BME280;60657;50.122;14.468;2022-09-03T02:14:36;98374.01044502179;;;13.637750820172428;65.91195544365605
71642;BME280;60657;50.122;14.468;2022-09-03T02:17:49;98377.28706832639;;;13.651102464332034;65.88143739986266
71642;BME280;60657;50.122;14.468;2022-09-03T02:21:07;98377.25058183774;;;13.728542000457772;65.72312504768445
71642;BME280;60657;50.122;14.468;2022-09-03T02:24:20;98373.91963111321;;;13.693827725642784;65.9787136644541
71642;BME280;60657;50.122;14.468;2022-09-03T02:27:34;98373.95621627998;;;13.65377279316396;65.9367513542382
71642;BME280;60657;50.122;14.468;2022-09-03T02:30:46;98376.45889052478;;;13.667124437323565;66.12939650568399
71642;BME280;60657;50.122;14.468;2022-09-03T02:33:59;98378.24029191684;;;13.613717860685128;66.30869001297017
71642;BME280;60657;50.122;14.468;2022-09-03T02:37:12;98380.6897039162;;;13.613717860685128;66.49942778667888
71642;BME280;60657;50.122;14.468;2022-09-03T02:40:26;98387.31574683716;;;13.667124437323565;66.16372930495156
71642;BME280;60657;50.122;14.468;2022-09-03T02:43:39;98377.44697459598;;;13.605706874189366;66.34683756771192
71642;BME280;60657;50.122;14.468;2022-09-03T02:46:58;98372.44264321939;;;13.549629968719003;66.28770885786221
71642;BME280;60657;50.122;14.468;2022-09-03T02:50:14;98372.44264321939;;;13.54428931105516;66.28770885786221
71642;BME280;60657;50.122;14.468;2022-09-03T02:53:26;98364.82857766192;;;13.624399176012815;66.03593499656672
71642;BME280;60657;50.122;14.468;2022-09-03T02:56:39;98361.49798576717;;;13.570992599374378;66.16372930495156
71642;BME280;60657;50.122;14.468;2022-09-03T02:59:52;98369.68624629785;;;13.651102464332034;65.75745784695201
71642;BME280;60657;50.122;14.468;2022-09-03T03:03:04;98365.65668568047;;;13.65377279316396;65.8032349126421
71642;BME280;60657;50.122;14.468;2022-09-03T03:06:17;98363.08043239453;;;13.632410162508585;65.79369802395667
71642;BME280;60657;50.122;14.468;2022-09-03T03:09:31;98360.7061930173;;;13.565651941710534;66.05882352941177
71642;BME280;60657;50.122;14.468;2022-09-03T03:12:43;98362.57307874052;;;13.418783855954835;66.81414511329824
71642;BME280;60657;50.122;14.468;2022-09-03T03:15:56;98360.00231496539;;;13.488212405584804;66.85420004577706
71642;BME280;60657;50.122;14.468;2022-09-03T03:19:09;98364.19523136217;;;13.472190432593273;66.57190814068818
71642;BME280;60657;50.122;14.468;2022-09-03T03:22:22;98372.49474020659;;;13.485542076752878;66.7016098268101
71642;BME280;60657;50.122;14.468;2022-09-03T03:25:35;98372.37196976489;;;13.621728847180897;66.25146868085756
71642;BME280;60657;50.122;14.468;2022-09-03T03:28:50;98376.56621751284;;;13.533607995727472;66.58907454032196
71642;BME280;60657;50.122;14.468;2022-09-03T03:32:08;98364.14315330164;;;13.514915693904022;66.65583276112001
71642;BME280;60657;50.122;14.468;2022-09-03T03:35:20;98369.04140928896;;;13.581673914702066;66.47844663157092
71642;BME280;60657;50.122;14.468;2022-09-03T03:38:34;98370.82098578585;;;13.485542076752878;66.95910582131685
71642;BME280;60657;50.122;14.468;2022-09-03T03:41:47;98370.92325278191;;;13.410772869459066;67.25093461509117
71642;BME280;60657;50.122;14.468;2022-09-03T03:45:00;98361.6586393127;;;13.469520103761347;67.28908216983291
71642;BME280;60657;50.122;14.468;2022-09-03T03:48:12;98367.36717792519;;;13.557640955214772;66.73403524834058
71642;BME280;60657;50.122;14.468;2022-09-03T03:51:25;98370.82098578585;;;13.448157473105972;67.00106813153278
71642;BME280;60657;50.122;14.468;2022-09-03T03:54:38;98383.44799815393;;;13.352025635156785;67.26428625925078
71642;BME280;60657;50.122;14.468;2022-09-03T03:57:50;98372.64636267118;;;13.298619058518348;67.77164873731594
71642;BME280;60657;50.122;14.468;2022-09-03T04:01:03;98368.58571736253;;;13.218509193560692;67.72014953841459
71642;BME280;60657;50.122;14.468;2022-09-03T04:04:17;98365.22408211243;;;13.234531166552223;68.0711070420386
71642;BME280;60657;50.122;14.468;2022-09-03T04:07:30;98366.19480613191;;;13.109025711451899;68.58419165331502
71642;BME280;60657;50.122;14.468;2022-09-03T04:10:42;98373.81607721724;;;13.044937819485774;68.75967040512703
71642;BME280;60657;50.122;14.468;2022-09-03T04:13:57;98368.95823681107;;;12.9140917067216;69.2365148393988
71642;BME280;60657;50.122;14.468;2022-09-03T04:17:09;98358.22756686079;;;12.793926909285112;69.5455100328069
71642;BME280;60657;50.122;14.468;2022-09-03T04:20:22;98355.58906828919;;;12.99153124284733;68.72343022812238
71642;BME280;60657;50.122;14.468;2022-09-03T04:23:35;98347.3330270823;;;12.884718089570455;69.2651255054551
71642;BME280;60657;50.122;14.468;2022-09-03T04:26:50;98350.63264190107;;;12.951476310368506;69.22507057297628
71642;BME280;60657;50.122;14.468;2022-09-03T04:30:03;98350.61837524889;;;12.954146639200424;68.86266880292973
71642;BME280;60657;50.122;14.468;2022-09-03T04:33:16;98361.38837779756;;;12.978179598687724;68.68528267338064
71642;BME280;60657;50.122;14.468;2022-09-03T04:36:29;98351.4180044794;;;13.002212558175025;68.8817425803006
71642;BME280;60657;50.122;14.468;2022-09-03T04:39:42;98353.07485796945;;;12.978179598687724;68.6299687190051
71642;BME280;60657;50.122;14.468;2022-09-03T04:42:55;98349.6727751143;;;13.020904859998474;68.87029831387808
71642;BME280;60657;50.122;14.468;2022-09-03T04:46:09;98348.75297542995;;;13.127718013275349;68.54604409857328
71642;BME280;60657;50.122;14.468;2022-09-03T04:49:23;98351.19092752214;;;13.191805905241473;68.56702525368124
71642;BME280;60657;50.122;14.468;2022-09-03T04:52:36;98340.3117615439;;;13.205157549401086;68.65094987411307
71642;BME280;60657;50.122;14.468;2022-09-03T04:55:49;98339.35074129101;;;13.368047608148316;67.94331273365377
71642;BME280;60657;50.122;14.468;2022-09-03T04:59:02;98330.10435778057;;;13.421454184786754;67.9681086442359
71642;BME280;60657;50.122;14.468;2022-09-03T05:02:16;98345.02626063811;;;13.50156404974441;67.63241016250858
71642;BME280;60657;50.122;14.468;2022-09-03T05:05:29;98342.47104410904;;;13.51758602273594;67.39780270084688
71642;BME280;60657;50.122;14.468;2022-09-03T05:08:42;98347.31106840559;;;13.715190356298159;67.15365835049974
71642;BME280;60657;50.122;14.468;2022-09-03T05:11:55;98360.48327482316;;;13.803311207751584;66.38689250019074
71642;BME280;60657;50.122;14.468;2022-09-03T05:15:08;98352.91592184523;;;13.846036469062334;66.06454566262303
71642;BME280;60657;50.122;14.468;2022-09-03T05:18:21;98361.21465405858;;;13.91813534752422;65.99206530861372
71642;BME280;60657;50.122;14.468;2022-09-03T05:21:33;98353.68480821048;;;13.974212252994583;65.77843900205997
71642;BME280;60657;50.122;14.468;2022-09-03T05:24:46;98364.07482175987;;;14.214541847867551;65.42938887617304
71642;BME280;60657;50.122;14.468;2022-09-03T05:27:59;98369.084300876;;;14.251926451514457;64.57679102769512
71642;BME280;60657;50.122;14.468;2022-09-03T05:31:12;98375.89620268744;;;14.195849546044101;65.27679865720607
71642;BME280;60657;50.122;14.468;2022-09-03T05:34:27;98361.57008544588;;;14.262607766842144;65.33020523384451
71642;BME280;60657;50.122;14.468;2022-09-03T05:37:39;98370.5439226053;;;14.398794537270163;64.21057450217441
71642;BME280;60657;50.122;14.468;2022-09-03T05:40:52;98370.4994189845;;;14.534981307698175;64.67788204776073
71642;BME280;60657;50.122;14.468;2022-09-03T05:44:05;98364.33815144192;;;14.687190051117724;64.15907530327306
71642;BME280;60657;50.122;14.468;2022-09-03T05:47:17;98372.8467602306;;;14.5376516365301;63.81765468833447
71642;BME280;60657;50.122;14.468;2022-09-03T05:50:30;98355.25916091174;;;14.585717555504694;64.39559014267185
71642;BME280;60657;50.122;14.468;2022-09-03T05:53:43;98358.42652671669;;;14.660486762798506;64.46807049668116
71642;BME280;60657;50.122;14.468;2022-09-03T05:56:57;98369.96265360009;;;14.764629587243455;63.25688563363089
71642;BME280;60657;50.122;14.468;2022-09-03T06:00:10;98378.58506484157;;;15.146486610208285;63.47241931792172
71642;BME280;60657;50.122;14.468;2022-09-03T06:03:23;98366.89811410397;;;15.173189898527504;61.6642252231632
71642;BME280;60657;50.122;14.468;2022-09-03T06:06:37;98367.26533751698;;;15.402838178072784;61.54024567025253
71642;BME280;60657;50.122;14.468;2022-09-03T06:09:52;98383.33716818973;;;15.424200808728159;61.06530861371786
71642;BME280;60657;50.122;14.468;2022-09-03T06:13:04;98388.51340289805;;;15.333409628442816;61.20645456626231
71642;BME280;60657;50.122;14.468;2022-09-03T06:16:17;98381.57458807077;;;15.44823376821546;61.07675288014039
71642;BME280;60657;50.122;14.468;2022-09-03T06:19:29;98368.77933949359;;;15.544365606164646;61.368581673914704
71642;BME280;60657;50.122;14.468;2022-09-03T06:22:47;98369.08488601423;;;15.418860151064315;61.406729228656445
71642;BME280;60657;50.122;14.468;2022-09-03T06:26:00;98367.12523980829;;;15.512321660181584;60.96040283817807
71642;BME280;60657;50.122;14.468;2022-09-03T06:29:15;98368.57940541614;;;15.67788204776074;61.21217669947356
71642;BME280;60657;50.122;14.468;2022-09-03T06:32:28;98364.35766435828;;;15.72060730907149;60.535057602807655
71642;BME280;60657;50.122;14.468;2022-09-03T06:35:40;98381.35437087885;;;15.488288700694284;61.2503242542153
71642;BME280;60657;50.122;14.468;2022-09-03T06:38:53;98373.7699947983;;;15.501640344853897;61.14160372320134
71642;BME280;60657;50.122;14.468;2022-09-03T06:42:07;98373.61775134584;;;15.920881971465626;60.7658503089952
71642;BME280;60657;50.122;14.468;2022-09-03T06:45:20;98365.10523842278;;;16.457618066681924;59.33722438391699
71642;BME280;60657;50.122;14.468;2022-09-03T06:48:33;98366.70838587044;;;16.807431143663692;58.19089036392768
71642;BME280;60657;50.122;14.468;2022-09-03T06:51:48;98369.1144610933;;;16.93560692759594;57.1551842526894
71642;BME280;60657;50.122;14.468;2022-09-03T06:55:00;98370.44103731502;;;16.780727855344473;57.36690318150607
71642;BME280;60657;50.122;14.468;2022-09-03T06:58:13;98368.28827911356;;;16.882200350957504;57.038834210727096
71642;BME280;60657;50.122;14.468;2022-09-03T07:01:26;98350.09002871937;;;17.40291447318227;56.30258640421149
71642;BME280;60657;50.122;14.468;2022-09-03T07:04:41;98344.9432736605;;;18.06782635233082;55.579690241855495
71642;BME280;60657;50.122;14.468;2022-09-03T07:07:54;98347.16543363497;;;18.3829251544976;53.37666895551995
71642;BME280;60657;50.122;14.468;2022-09-03T07:11:07;98350.92159921529;;;18.50041962310216;52.947508964675364
71642;BME280;60657;50.122;14.468;2022-09-03T07:14:21;98355.4157345596;;;18.665980010681317;52.24559395742733
71642;BME280;60657;50.122;14.468;2022-09-03T07:17:34;98354.63674500106;;;18.682001983672848;52.32188906691081
71642;BME280;60657;50.122;14.468;2022-09-03T07:20:46;98359.8163817057;;;18.529793240253298;51.690547035935
71642;BME280;60657;50.122;14.468;2022-09-03T07:24:04;98347.80565584789;;;18.700694285496297;52.527885862516214
71642;BME280;60657;50.122;14.468;2022-09-03T07:27:22;98345.57870211656;;;19.23208972304876;51.90417334248875
71642;BME280;60657;50.122;14.468;2022-09-03T07:30:34;98347.33683543773;;;19.52315556572823;51.213702601663236
71642;BME280;60657;50.122;14.468;2022-09-03T07:33:47;98337.53438195144;;;19.15465018692302;51.127870603494316
71642;BME280;60657;50.122;14.468;2022-09-03T07:36:59;98334.55595236088;;;19.512474250400544;51.305256733043414
71642;BME280;60657;50.122;14.468;2022-09-03T07:40:12;98331.67406597652;;;19.338902876325633;50.80170901045243
71642;BME280;60657;50.122;14.468;2022-09-03T07:43:25;98329.35522295376;;;19.298847943846795;51.043945983062486
71642;BME280;60657;50.122;14.468;2022-09-03T07:46:40;98329.55820177258;;;19.54718852521553;50.30006866559854
71642;BME280;60657;50.122;14.468;2022-09-03T07:49:52;98327.8937546855;;;20.05722133211262;51.14122224765393
71642;BME280;60657;50.122;14.468;2022-09-03T07:53:05;98336.45677522024;;;20.241474021515216;49.09079118028534
71642;BME280;60657;50.122;14.468;2022-09-03T07:56:18;98346.56014760523;;;20.57793545433738;48.411764705882355
71642;BME280;60657;50.122;14.468;2022-09-03T07:59:31;98339.26528275074;;;20.887693598840315;48.63683527885863
71642;BME280;60657;50.122;14.468;2022-09-03T08:02:44;98338.54668294346;;;21.031891355764103;47.65644312199588
71642;BME280;60657;50.122;14.468;2022-09-03T08:05:59;98343.32341222861;;;20.740825513084616;48.318303196765086
71642;BME280;60657;50.122;14.468;2022-09-03T08:09:12;98337.11473258487;;;21.095979247730227;47.31311512932021
71642;BME280;60657;50.122;14.468;2022-09-03T08:12:25;98337.89397580439;;;21.309605554283976;46.7695124742504
71642;BME280;60657;50.122;14.468;2022-09-03T08:15:38;98336.31356825437;;;21.608682383459225;46.552071412222475
71642;BME280;60657;50.122;14.468;2022-09-03T08:18:50;98333.37714921881;;;21.8863965819791;45.125352864881364
71642;BME280;60657;50.122;14.468;2022-09-03T08:22:03;98331.78126797563;;;22.222858014801247;45.29510948348211
71642;BME280;60657;50.122;14.468;2022-09-03T08:25:16;98331.09520527908;;;22.519264515144584;45.26840619516289
71642;BME280;60657;50.122;14.468;2022-09-03T08:28:29;98340.3217305043;;;21.80361638818951;44.5302510109102
71642;BME280;60657;50.122;14.468;2022-09-03T08:31:41;98329.59286720186;;;22.28694590676737;44.322346837567714
71642;BME280;60657;50.122;14.468;2022-09-03T08:34:54;98330.27287857162;;;22.551308461127647;42.483634699015795
71642;BME280;60657;50.122;14.468;2022-09-03T08:38:07;98348.7155452709;;;22.36438544289311;43.910353246356905
71642;BME280;60657;50.122;14.468;2022-09-03T08:41:20;98337.13172898574;;;22.300297550926985;43.81307698176547
71642;BME280;60657;50.122;14.468;2022-09-03T08:44:40;98331.16472394082;;;22.34035248340581;45.67849240863661
71642;BME280;60657;50.122;14.468;2022-09-03T08:48:00;98334.116083154;;;22.353704127565422;44.66186007476921
71642;BME280;60657;50.122;14.468;2022-09-03T08:51:19;98327.9447823332;;;22.42580300602731;44.34523537041276
71642;BME280;60657;50.122;14.468;2022-09-03T08:54:36;98327.11533229187;;;22.059967956054024;45.237888151369496
71642;BME280;60657;50.122;14.468;2022-09-03T08:57:50;98325.7379938878;;;22.00389105058366;45.123445487144274
71642;BME280;60657;50.122;14.468;2022-09-03T09:01:13;98326.24667067961;;;21.395056076905476;46.85343709468223
71642;BME280;60657;50.122;14.468;2022-09-03T09:04:38;98323.66900533222;;;21.79560540169375;47.57251850156405
71642;BME280;60657;50.122;14.468;2022-09-03T09:08:12;98324.3845833167;;;22.121385519188223;47.356984817273215
71642;BME280;60657;50.122;14.468;2022-09-03T09:11:39;98321.7757860536;;;22.097352559700923;45.76050965133135
71642;BME280;60657;50.122;14.468;2022-09-03T09:15:06;98324.93026381789;;;22.094682230868997;46.849622339208054
71642;BME280;60657;50.122;14.468;2022-09-03T09:18:26;98315.85254964199;;;22.62874799725337;45.73380636301213
71642;BME280;60657;50.122;14.468;2022-09-03T09:21:55;98310.95619783543;;;22.783627069504846;45.13107499809262
71642;BME280;60657;50.122;14.468;2022-09-03T09:25:15;98310.2397292616;;;22.553978789959558;45.38094148165103
71642;BME280;60657;50.122;14.468;2022-09-03T09:28:32;98305.23655798534;;;22.618066681925683;45.853971160448616
71642;BME280;60657;50.122;14.468;2022-09-03T09:31:47;98308.66626048667;;;22.460517280842296;46.0332646677348
71642;BME280;60657;50.122;14.468;2022-09-03T09:35:00;98320.26617963388;;;22.401770046540022;44.74578469520104
71642;BME280;60657;50.122;14.468;2022-09-03T09:38:13;98319.03756276018;;;22.249561303120473;44.03624017700466
71642;BME280;60657;50.122;14.468;2022-09-03T09:41:26;98322.44758119661;;;21.841000991836424;45.01091020065614
71642;BME280;60657;50.122;14.468;2022-09-03T09:44:40;98312.99790570549;;;21.921110856794073;46.80766002899214
71642;BME280;60657;50.122;14.468;2022-09-03T09:47:54;98310.94849037619;;;22.02258335240711;48.24582284275578
71642;BME280;60657;50.122;14.468;2022-09-03T09:51:08;98311.49946406587;;;21.99855039291981;46.532997634851604
71642;BME280;60657;50.122;14.468;2022-09-03T09:54:25;98310.33578221379;;;22.182803082322422;45.750972762645915
71642;BME280;60657;50.122;14.468;2022-09-03T09:57:38;98302.69962071934;;;22.34035248340581;45.022354467078664
71642;BME280;60657;50.122;14.468;2022-09-03T10:00:54;98305.1915690406;;;22.001220721751736;46.237354085603116
71642;BME280;60657;50.122;14.468;2022-09-03T10:04:10;98295.98177763863;;;22.655451285572596;46.712291142137786
71642;BME280;60657;50.122;14.468;2022-09-03T10:07:26;98290.04884151867;;;22.911802853437095;43.98283360036621
71642;BME280;60657;50.122;14.468;2022-09-03T10:10:41;98299.91089934508;;;22.93316548409247;44.379568169680326
71642;BME280;60657;50.122;14.468;2022-09-03T10:13:59;98291.25791134352;;;22.949187457083994;43.37438010223545
71642;BME280;60657;50.122;14.468;2022-09-03T10:17:18;98293.12938359409;;;23.45922026398108;42.538948653391316
71642;BME280;60657;50.122;14.468;2022-09-03T10:20:39;98279.40638501223;;;24.12413214312963;43.5727473868925
71642;BME280;60657;50.122;14.468;2022-09-03T10:24:03;98270.82838731376;;;25.0854505226215;41.17326619363699
71642;BME280;60657;50.122;14.468;2022-09-03T10:27:31;98261.54280567238;;;25.293736171511412;40.51712825207904
71642;BME280;60657;50.122;14.468;2022-09-03T10:30:50;98262.87357378256;;;25.67826352330816;38.954985885404746
71642;BME280;60657;50.122;14.468;2022-09-03T10:34:27;98257.60251039312;;;25.827801937895785;39.542458228427556
71642;BME280;60657;50.122;14.468;2022-09-03T10:37:53;98256.32902991703;;;25.90524147402151;40.475165941863125
71642;BME280;60657;50.122;14.468;2022-09-03T10:41:25;98255.21345698637;;;26.140230411230647;40.67925535973144
71642;BME280;60657;50.122;14.468;2022-09-03T10:44:53;98254.27780597784;;;26.377889677271682;39.25825894560159
71642;BME280;60657;50.122;14.468;2022-09-03T10:48:24;98249.77819268144;;;26.850537880521856;39.485236896314944
71642;BME280;60657;50.122;14.468;2022-09-03T10:52:08;98249.58799231617;;;27.117570763714042;38.18631265735866
71642;BME280;60657;50.122;14.468;2022-09-03T10:55:37;98248.84039702636;;;26.87190051117723;37.64080262455177
71642;BME280;60657;50.122;14.468;2022-09-03T10:59:03;98247.30148724206;;;27.02944991226063;37.739986266880294
71642;BME280;60657;50.122;14.468;2022-09-03T11:02:46;98246.85366200251;;;27.427328908216978;37.00564583810178
71642;BME280;60657;50.122;14.468;2022-09-03T11:06:24;98238.28373260288;;;27.48874647135119;36.030975814450294
71642;BME280;60657;50.122;14.468;2022-09-03T11:09:42;98239.08671338984;;;27.192339971007854;36.5020981155108
71642;BME280;60657;50.122;14.468;2022-09-03T11:13:02;98233.61327190968;;;26.698329137102306;36.639429312581065
71642;BME280;60657;50.122;14.468;2022-09-03T11:16:22;98234.5954638836;;;26.69298847943847;36.61654077973602
71642;BME280;60657;50.122;14.468;2022-09-03T11:19:45;98232.74078392284;;;27.088197146562905;36.442969405661096
71642;BME280;60657;50.122;14.468;2022-09-03T11:23:03;98221.61471906755;;;27.52613107499809;35.247043564507514
71642;BME280;60657;50.122;14.468;2022-09-03T11:26:22;98218.84247501455;;;27.624933241779203;34.35820553902495
71642;BME280;60657;50.122;14.468;2022-09-03T11:29:38;98226.60479428741;;;27.99610894941634;35.33859769588769
71642;BME280;60657;50.122;14.468;2022-09-03T11:33:05;98223.02030715754;;;27.878614480811777;34.32196536202029
71642;BME280;60657;50.122;14.468;2022-09-03T11:36:23;98203.53064538044;;;28.08155947203784;33.31677729457542
71642;BME280;60657;50.122;14.468;2022-09-03T11:39:42;98223.96470468347;;;27.31250476844434;34.28000305180438
71642;BME280;60657;50.122;14.468;2022-09-03T11:43:04;98219.36034899854;;;27.49408712901503;34.40588998245212
71642;BME280;60657;50.122;14.468;2022-09-03T11:46:28;98221.38471814836;;;27.683680476081477;34.03776607919433
71642;BME280;60657;50.122;14.468;2022-09-03T11:49:44;98216.24678382112;;;27.956054016937514;34.27046616311895
71642;BME280;60657;50.122;14.468;2022-09-03T11:53:07;98210.03387469081;;;28.273823147936213;34.75112535286488